createdAt,value
2018-04-26T00:00:52.478Z,10.44
2018-04-26T00:03:20.002Z,10.56
2018-04-26T00:05:47.527Z,10.58
2018-04-26T00:08:15.099Z,10.73
2018-04-26T00:10:42.618Z,10.94
2018-04-26T00:13:10.194Z,10.83
2018-04-26T00:15:37.717Z,10.75
2018-04-26T00:18:05.234Z,10.77
2018-04-26T00:20:32.787Z,10.82
2018-04-26T00:23:00.306Z,10.81
2018-04-26T00:25:28.294Z,10.80
2018-04-26T00:27:55.818Z,10.75
2018-04-26T00:30:23.350Z,10.71
2018-04-26T00:32:50.895Z,10.71
2018-04-26T00:35:18.410Z,10.53
2018-04-26T00:37:46.074Z,10.55
2018-04-26T00:40:13.592Z,10.66
2018-04-26T00:42:41.117Z,10.61
2018-04-26T00:45:08.670Z,10.27
2018-04-26T00:47:36.230Z,10.50
2018-04-26T00:50:03.870Z,10.24
2018-04-26T00:52:31.402Z,10.22
2018-04-26T00:54:58.913Z,10.28
2018-04-26T00:57:26.510Z,10.13
2018-04-26T00:59:54.043Z,9.94
2018-04-26T01:02:21.781Z,9.75
2018-04-26T01:04:49.299Z,9.75
2018-04-26T01:07:16.814Z,9.44
2018-04-26T01:09:44.383Z,9.39
2018-04-26T01:12:11.890Z,9.05
2018-04-26T01:14:39.453Z,9.04
2018-04-26T01:17:06.962Z,8.54
2018-04-26T01:19:34.478Z,8.54
2018-04-26T01:22:02.018Z,8.45
2018-04-26T01:24:29.572Z,8.26
2018-04-26T01:26:57.298Z,8.35
2018-04-26T01:29:24.815Z,8.20
2018-04-26T01:31:52.326Z,8.22
2018-04-26T01:34:19.873Z,8.15
2018-04-26T01:36:59.349Z,7.92
2018-04-26T01:39:27.034Z,7.83
2018-04-26T01:41:54.547Z,7.83
2018-04-26T01:44:22.058Z,7.87
2018-04-26T01:46:49.614Z,7.99
2018-04-26T01:49:18.110Z,7.98
2018-04-26T01:51:45.796Z,7.99
2018-04-26T01:54:13.342Z,8.01
2018-04-26T01:56:40.884Z,8.00
2018-04-26T01:59:08.443Z,7.79
2018-04-26T02:01:35.949Z,7.41
2018-04-26T02:04:03.449Z,7.38
2018-04-26T02:06:30.936Z,7.26
2018-04-26T02:08:58.773Z,7.21
2018-04-26T02:11:26.267Z,7.29
2018-04-26T02:13:53.742Z,7.24
2018-04-26T02:16:21.248Z,7.16
2018-04-26T02:18:48.721Z,6.97
2018-04-26T02:21:16.426Z,6.71
2018-04-26T02:23:43.921Z,6.72
2018-04-26T02:26:11.421Z,6.54
2018-04-26T02:28:38.935Z,6.61
2018-04-26T02:31:06.417Z,6.50
2018-04-26T02:33:33.955Z,6.65
2018-04-26T02:36:01.467Z,6.32
2018-04-26T02:38:28.945Z,6.17
2018-04-26T02:40:56.453Z,6.23
2018-04-26T02:43:23.933Z,6.15
2018-04-26T02:45:51.868Z,6.08
2018-04-26T02:48:19.341Z,6.18
2018-04-26T02:50:46.849Z,6.05
2018-04-26T02:53:14.351Z,5.97
2018-04-26T02:55:41.831Z,5.81
2018-04-26T02:58:09.428Z,5.88
2018-04-26T03:00:36.925Z,5.95
2018-04-26T03:03:04.403Z,5.91
2018-04-26T03:05:31.901Z,6.02
2018-04-26T03:07:59.380Z,6.14
2018-04-26T03:10:27.253Z,6.19
2018-04-26T03:12:54.728Z,6.11
2018-04-26T03:15:22.214Z,6.07
2018-04-26T03:17:49.736Z,6.19
2018-04-26T03:20:17.208Z,6.29
2018-04-26T03:22:44.900Z,6.28
2018-04-26T03:25:12.388Z,6.38
2018-04-26T03:27:39.885Z,6.07
2018-04-26T03:30:07.390Z,6.24
2018-04-26T03:32:34.889Z,5.73
2018-04-26T03:35:02.562Z,5.79
2018-04-26T03:37:30.045Z,5.84
2018-04-26T03:39:57.517Z,5.87
2018-04-26T03:42:25.017Z,5.68
2018-04-26T03:44:52.488Z,5.89
2018-04-26T03:47:19.988Z,6.14
2018-04-26T03:49:47.469Z,6.13
2018-04-26T03:52:15.072Z,6.46
2018-04-26T03:54:42.549Z,6.47
2018-04-26T03:57:10.028Z,6.55
2018-04-26T03:59:49.420Z,6.41
2018-04-26T04:02:28.733Z,6.35
2018-04-26T04:05:08.168Z,6.44
2018-04-26T04:07:35.644Z,6.32
2018-04-26T04:10:03.162Z,6.25
2018-04-26T04:12:30.636Z,6.29
2018-04-26T04:14:58.141Z,6.35
2018-04-26T04:17:25.637Z,6.38
2018-04-26T04:19:53.141Z,6.22
2018-04-26T04:22:20.647Z,6.25
2018-04-26T04:24:48.133Z,6.23
2018-04-26T04:27:15.621Z,6.16
2018-04-26T04:29:43.122Z,6.31
2018-04-26T04:32:10.604Z,6.04
2018-04-26T04:34:38.121Z,6.07
2018-04-26T04:37:05.596Z,6.21
2018-04-26T04:39:33.093Z,6.18
2018-04-26T04:42:00.589Z,6.18
2018-04-26T04:44:28.089Z,6.13
2018-04-26T04:46:55.757Z,6.04
2018-04-26T04:49:23.242Z,6.17
2018-04-26T04:51:50.721Z,6.26
2018-04-26T04:54:18.221Z,6.34
2018-04-26T04:56:45.922Z,6.54
2018-04-26T04:59:13.401Z,6.61
2018-04-26T05:01:40.874Z,7.21
2018-04-26T05:04:08.386Z,8.37
2018-04-26T05:06:35.869Z,9.36
2018-04-26T05:09:03.369Z,10.27
2018-04-26T05:11:30.900Z,10.64
2018-04-26T05:13:58.432Z,10.91
2018-04-26T05:16:25.946Z,11.37
2018-04-26T05:18:53.440Z,11.59
2018-04-26T05:21:20.945Z,12.59
2018-04-26T05:23:48.423Z,12.56
2018-04-26T05:26:15.929Z,12.68
2018-04-26T05:28:43.404Z,13.11
2018-04-26T05:31:10.934Z,12.84
2018-04-26T05:33:38.433Z,13.17
2018-04-26T05:36:05.960Z,13.33
2018-04-26T05:38:33.453Z,13.38
2018-04-26T05:41:00.937Z,13.74
2018-04-26T05:43:28.472Z,13.54
2018-04-26T05:45:55.953Z,13.11
2018-04-26T05:48:23.612Z,13.59
2018-04-26T05:50:51.104Z,13.27
2018-04-26T05:53:18.581Z,13.07
2018-04-26T05:55:46.113Z,13.86
2018-04-26T05:58:13.601Z,13.88
2018-04-26T06:00:41.277Z,13.58
2018-04-26T06:03:08.779Z,13.67
2018-04-26T06:05:36.265Z,13.48
2018-04-26T06:08:03.764Z,13.25
2018-04-26T06:10:31.253Z,13.47
2018-04-26T06:12:58.781Z,13.48
2018-04-26T06:15:26.260Z,13.52
2018-04-26T06:17:54.200Z,13.01
2018-04-26T06:20:21.689Z,13.05
2018-04-26T06:22:49.161Z,12.82
2018-04-26T06:25:16.664Z,12.86
2018-04-26T06:27:44.148Z,12.81
2018-04-26T06:30:11.664Z,12.92
2018-04-26T06:32:39.155Z,13.53
2018-04-26T06:35:06.662Z,12.96
2018-04-26T06:37:34.176Z,13.26
2018-04-26T06:40:01.690Z,12.79
2018-04-26T06:42:29.198Z,13.28
2018-04-26T06:44:56.673Z,13.15
2018-04-26T06:47:24.177Z,13.32
2018-04-26T06:49:51.672Z,13.27
2018-04-26T06:52:19.173Z,13.36
2018-04-26T06:54:46.672Z,13.07
2018-04-26T06:57:14.185Z,13.24
2018-04-26T06:59:41.693Z,13.25
2018-04-26T07:02:09.168Z,13.49
2018-04-26T07:04:36.708Z,13.68
2018-04-26T07:07:04.189Z,13.63
2018-04-26T07:09:31.692Z,13.15
2018-04-26T07:11:59.202Z,13.37
2018-04-26T07:14:26.741Z,13.04
2018-04-26T07:16:54.225Z,13.53
2018-04-26T07:19:21.925Z,13.50
2018-04-26T07:21:49.433Z,13.33
2018-04-26T07:24:16.921Z,13.60
2018-04-26T07:26:44.425Z,13.19
2018-04-26T07:29:11.907Z,13.37
2018-04-26T07:31:39.428Z,13.57
2018-04-26T07:34:06.908Z,13.34
2018-04-26T07:36:34.388Z,13.57
2018-04-26T07:39:01.934Z,13.76
2018-04-26T07:41:29.442Z,13.83
2018-04-26T07:43:56.948Z,13.64
2018-04-26T07:46:24.429Z,13.74
2018-04-26T07:48:51.929Z,13.58
2018-04-26T07:51:19.405Z,13.83
2018-04-26T07:53:46.909Z,13.52
2018-04-26T07:56:14.388Z,14.11
2018-04-26T07:58:41.908Z,13.45
2018-04-26T08:01:09.409Z,13.44
2018-04-26T08:03:36.915Z,13.44
2018-04-26T08:06:04.669Z,13.64
2018-04-26T08:08:32.146Z,13.76
2018-04-26T08:10:59.629Z,14.16
2018-04-26T08:13:27.130Z,13.97
2018-04-26T08:15:54.609Z,14.02
2018-04-26T08:18:22.125Z,14.01
2018-04-26T08:20:49.675Z,14.31
2018-04-26T08:23:17.113Z,14.09
2018-04-26T08:25:44.612Z,13.91
2018-04-26T08:28:12.109Z,13.81
2018-04-26T08:30:39.697Z,13.64
2018-04-26T08:33:07.181Z,13.75
2018-04-26T08:35:34.837Z,13.88
2018-04-26T08:38:02.317Z,13.45
2018-04-26T08:40:29.824Z,13.58
2018-04-26T08:42:57.332Z,13.61
2018-04-26T08:45:24.805Z,13.88
2018-04-26T08:47:52.318Z,14.10
2018-04-26T08:50:19.796Z,14.68
2018-04-26T08:52:47.725Z,14.56
2018-04-26T08:55:15.238Z,14.31
2018-04-26T08:57:42.720Z,14.55
2018-04-26T09:00:10.237Z,14.49
2018-04-26T09:02:37.714Z,14.57
2018-04-26T09:05:05.369Z,14.57
2018-04-26T09:07:32.852Z,14.59
2018-04-26T09:10:00.359Z,14.93
2018-04-26T09:12:27.887Z,15.13
2018-04-26T09:14:55.360Z,14.90
2018-04-26T09:17:22.880Z,15.06
2018-04-26T09:19:50.367Z,14.91
2018-04-26T09:22:17.888Z,15.05
2018-04-26T09:24:45.377Z,14.72
2018-04-26T09:27:12.861Z,15.08
2018-04-26T09:29:40.376Z,14.84
2018-04-26T09:32:07.866Z,14.77
2018-04-26T09:34:35.380Z,14.74
2018-04-26T09:37:02.860Z,15.33
2018-04-26T09:39:30.339Z,15.32
2018-04-26T09:41:57.840Z,15.69
2018-04-26T09:44:25.335Z,15.34
2018-04-26T09:46:52.873Z,15.36
2018-04-26T09:49:20.365Z,15.03
2018-04-26T09:51:47.852Z,14.77
2018-04-26T09:54:15.362Z,14.76
2018-04-26T09:56:42.840Z,14.89
2018-04-26T09:59:10.537Z,15.06
2018-04-26T10:01:38.021Z,15.54
2018-04-26T10:04:11.402Z,15.63
2018-04-26T10:06:44.589Z,15.42
2018-04-26T10:09:12.105Z,15.67
2018-04-26T10:11:39.725Z,15.71
2018-04-26T10:14:07.213Z,16.32
2018-04-26T10:16:34.730Z,16.39
2018-04-26T10:19:02.217Z,16.20
2018-04-26T10:21:29.737Z,15.61
2018-04-26T10:23:57.213Z,15.98
2018-04-26T10:26:24.716Z,15.58
2018-04-26T10:28:52.199Z,15.30
2018-04-26T10:31:19.712Z,15.11
2018-04-26T10:33:47.193Z,15.28
2018-04-26T10:36:14.672Z,15.60
2018-04-26T10:38:42.173Z,15.95
2018-04-26T10:41:09.653Z,16.09
2018-04-26T10:43:37.309Z,16.34
2018-04-26T10:46:04.757Z,16.61
2018-04-26T10:48:32.240Z,16.42
2018-04-26T10:50:59.760Z,16.69
2018-04-26T10:53:27.241Z,16.05
2018-04-26T10:55:54.748Z,16.17
2018-04-26T10:58:22.229Z,16.15
2018-04-26T11:00:49.877Z,16.75
2018-04-26T11:03:17.365Z,16.81
2018-04-26T11:05:44.847Z,16.62
2018-04-26T11:08:12.365Z,16.75
2018-04-26T11:10:39.867Z,16.78
2018-04-26T11:13:07.375Z,16.51
2018-04-26T11:15:34.918Z,16.28
2018-04-26T11:18:02.673Z,16.12
2018-04-26T11:20:30.172Z,16.27
2018-04-26T11:22:57.682Z,16.60
2018-04-26T11:25:25.189Z,16.40
2018-04-26T11:27:52.678Z,16.07
2018-04-26T11:30:20.316Z,16.06
2018-04-26T11:32:47.793Z,15.69
2018-04-26T11:35:15.287Z,15.70
2018-04-26T11:37:42.810Z,15.83
2018-04-26T11:40:10.345Z,15.94
2018-04-26T11:42:37.820Z,16.03
2018-04-26T11:45:05.297Z,15.94
2018-04-26T11:47:32.817Z,16.13
2018-04-26T11:50:00.334Z,16.11
2018-04-26T11:52:27.888Z,16.12
2018-04-26T11:54:55.374Z,16.73
2018-04-26T11:57:22.913Z,17.01
2018-04-26T11:59:50.441Z,16.79
2018-04-26T12:02:18.075Z,16.53
2018-04-26T12:04:45.602Z,16.95
2018-04-26T12:07:13.092Z,17.33
2018-04-26T12:09:40.586Z,17.03
2018-04-26T12:12:08.108Z,17.06
2018-04-26T12:14:35.585Z,17.03
2018-04-26T12:17:03.461Z,16.96
2018-04-26T12:19:30.958Z,16.91
2018-04-26T12:21:58.466Z,16.37
2018-04-26T12:24:26.007Z,16.47
2018-04-26T12:26:53.497Z,16.53
2018-04-26T12:29:21.030Z,16.69
2018-04-26T12:31:48.522Z,16.76
2018-04-26T12:34:16.189Z,16.41
2018-04-26T12:36:43.668Z,16.57
2018-04-26T12:39:11.148Z,16.30
2018-04-26T12:41:38.698Z,16.70
2018-04-26T12:44:06.197Z,16.69
2018-04-26T12:46:33.701Z,16.30
2018-04-26T12:49:01.193Z,16.50
2018-04-26T12:51:28.857Z,16.85
2018-04-26T12:53:56.353Z,16.81
2018-04-26T12:56:23.846Z,16.80
2018-04-26T12:58:51.349Z,16.68
2018-04-26T13:01:18.832Z,16.65
2018-04-26T13:03:46.514Z,16.65
2018-04-26T13:06:14.001Z,16.41
2018-04-26T13:08:41.498Z,16.46
2018-04-26T13:11:09.001Z,16.41
2018-04-26T13:13:36.517Z,16.32
2018-04-26T13:16:04.029Z,16.67
2018-04-26T13:18:31.512Z,17.14
2018-04-26T13:20:59.441Z,17.40
2018-04-26T13:23:26.931Z,17.44
2018-04-26T13:25:54.424Z,17.29
2018-04-26T13:28:21.947Z,17.26
2018-04-26T13:30:49.455Z,17.57
2018-04-26T13:33:16.972Z,17.17
2018-04-26T13:35:44.457Z,17.52
2018-04-26T13:38:12.106Z,17.18
2018-04-26T13:40:39.602Z,17.23
2018-04-26T13:43:07.089Z,16.93
2018-04-26T13:45:34.593Z,17.39
2018-04-26T13:48:02.393Z,17.44
2018-04-26T13:50:29.873Z,17.59
2018-04-26T13:52:57.349Z,16.84
2018-04-26T13:55:24.853Z,17.24
2018-04-26T13:57:52.340Z,17.71
2018-04-26T14:00:20.070Z,18.03
2018-04-26T14:02:47.548Z,18.20
2018-04-26T14:05:15.031Z,17.94
2018-04-26T14:07:42.541Z,17.59
2018-04-26T14:10:10.022Z,17.33
2018-04-26T14:12:38.030Z,16.98
2018-04-26T14:15:05.526Z,17.01
2018-04-26T14:17:33.079Z,17.32
2018-04-26T14:20:00.556Z,17.60
2018-04-26T14:22:28.033Z,17.08
2018-04-26T14:24:55.669Z,17.29
2018-04-26T14:27:23.164Z,17.64
2018-04-26T14:29:50.653Z,17.56
2018-04-26T14:32:18.153Z,17.52
2018-04-26T14:34:45.630Z,16.90
2018-04-26T14:37:13.225Z,16.86
2018-04-26T14:39:40.669Z,16.95
2018-04-26T14:42:08.149Z,17.02
2018-04-26T14:44:35.657Z,16.96
2018-04-26T14:47:03.136Z,16.93
2018-04-26T14:49:30.667Z,16.82
2018-04-26T14:51:58.172Z,16.86
2018-04-26T14:54:25.657Z,16.99
2018-04-26T14:56:53.283Z,17.09
2018-04-26T14:59:20.766Z,17.61
2018-04-26T15:01:48.295Z,17.06
2018-04-26T15:04:15.781Z,17.10
2018-04-26T15:06:43.260Z,16.95
2018-04-26T15:09:10.775Z,17.05
2018-04-26T15:11:38.256Z,16.96
2018-04-26T15:14:05.784Z,17.11
2018-04-26T15:16:33.292Z,17.11
2018-04-26T15:19:00.801Z,17.40
2018-04-26T15:21:28.323Z,17.34
2018-04-26T15:23:55.826Z,16.95
2018-04-26T15:26:23.545Z,17.00
2018-04-26T15:28:51.038Z,17.15
2018-04-26T15:31:18.529Z,17.05
2018-04-26T15:33:46.041Z,17.14
2018-04-26T15:36:13.526Z,17.19
2018-04-26T15:38:41.393Z,17.29
2018-04-26T15:41:08.873Z,17.23
2018-04-26T15:43:36.390Z,17.50
2018-04-26T15:46:03.896Z,17.26
2018-04-26T15:48:31.373Z,17.29
2018-04-26T15:50:58.901Z,17.19
2018-04-26T15:53:38.197Z,17.48
2018-04-26T15:56:16.937Z,17.18
2018-04-26T16:02:19.517Z,17.37
2018-04-26T16:04:58.685Z,17.59
2018-04-26T16:07:54.444Z,17.41
2018-04-26T16:10:39.435Z,17.57
2018-04-26T16:16:41.790Z,17.60
2018-04-26T16:19:26.684Z,17.33
2018-04-26T16:22:11.849Z,16.85
2018-04-26T16:24:54.849Z,16.88
2018-04-26T16:27:39.905Z,16.95
2018-04-26T16:30:19.442Z,17.02
2018-04-26T16:35:57.975Z,17.23
2018-04-26T16:41:25.721Z,17.35
2018-04-26T16:43:53.216Z,17.35
2018-04-26T16:46:20.736Z,17.09
2018-04-26T16:48:48.221Z,17.17
2018-04-26T16:51:15.722Z,17.32
2018-04-26T16:53:43.250Z,17.46
2018-04-26T16:56:10.770Z,17.15
2018-04-26T16:58:38.329Z,16.85
2018-04-26T17:01:05.829Z,16.72
2018-04-26T17:03:33.317Z,16.75
2018-04-26T17:06:00.847Z,16.82
2018-04-26T17:08:28.341Z,16.77
2018-04-26T17:10:56.049Z,16.64
2018-04-26T17:13:23.528Z,16.53
2018-04-26T17:15:51.013Z,16.39
2018-04-26T17:18:18.541Z,16.54
2018-04-26T17:20:46.032Z,16.23
2018-04-26T17:23:13.681Z,16.35
2018-04-26T17:25:41.160Z,16.43
2018-04-26T17:28:08.687Z,16.71
2018-04-26T17:30:36.189Z,16.29
2018-04-26T17:33:03.668Z,16.38
2018-04-26T17:35:31.271Z,16.57
2018-04-26T17:37:58.701Z,16.26
2018-04-26T17:40:26.224Z,16.47
2018-04-26T17:42:53.745Z,16.34
2018-04-26T17:45:21.250Z,16.23
2018-04-26T17:47:48.786Z,16.57
2018-04-26T17:50:16.270Z,16.24
2018-04-26T17:52:43.986Z,16.21
2018-04-26T17:55:11.534Z,16.02
2018-04-26T17:57:39.032Z,16.05
2018-04-26T18:00:06.741Z,15.81
2018-04-26T18:02:34.300Z,15.85
2018-04-26T18:05:01.805Z,15.51
2018-04-26T18:07:29.353Z,15.50
2018-04-26T18:09:56.845Z,15.29
2018-04-26T18:12:24.747Z,15.01
2018-04-26T18:14:52.224Z,14.95
2018-04-26T18:17:19.710Z,14.90
2018-04-26T18:19:47.257Z,14.86
2018-04-26T18:22:14.754Z,14.98
2018-04-26T18:24:42.548Z,14.99
2018-04-26T18:27:10.377Z,14.82
2018-04-26T18:29:37.885Z,14.76
2018-04-26T18:32:05.438Z,14.89
2018-04-26T18:34:32.914Z,14.52
2018-04-26T18:37:00.641Z,14.37
2018-04-26T18:39:28.132Z,14.26
2018-04-26T18:41:55.670Z,14.13
2018-04-26T18:44:23.350Z,14.06
2018-04-26T18:46:51.049Z,13.68
2018-04-26T18:49:18.604Z,13.54
2018-04-26T18:51:46.126Z,13.39
2018-04-26T18:54:14.031Z,13.33
2018-04-26T18:56:42.120Z,13.24
2018-04-26T18:59:10.050Z,13.13
2018-04-26T19:01:38.029Z,12.93
2018-04-26T19:04:05.899Z,12.84
2018-04-26T19:06:33.634Z,12.59
2018-04-26T19:09:01.572Z,12.38
2018-04-26T19:11:29.657Z,12.35
2018-04-26T19:13:57.846Z,12.13
2018-04-26T19:16:26.030Z,11.65
2018-04-26T19:18:54.062Z,11.67
2018-04-26T19:21:22.458Z,11.65
2018-04-26T19:23:50.655Z,11.55
2018-04-26T19:26:18.879Z,11.56
2018-04-26T19:28:46.990Z,11.09
2018-04-26T19:31:15.341Z,10.95
2018-04-26T19:33:43.345Z,10.84
2018-04-26T19:36:11.679Z,10.80
2018-04-26T19:38:39.879Z,10.97
2018-04-26T19:41:08.103Z,11.15
2018-04-26T19:43:36.606Z,11.10
2018-04-26T19:46:04.688Z,11.03
2018-04-26T19:48:34.180Z,10.75
2018-04-26T19:51:02.471Z,10.33
2018-04-26T19:53:30.464Z,10.38
2018-04-26T19:55:58.857Z,10.44
2018-04-26T19:58:26.843Z,10.46
2018-04-26T20:00:55.119Z,10.39
2018-04-26T20:03:23.430Z,10.32
2018-04-26T20:05:51.683Z,10.43
2018-04-26T20:08:19.913Z,10.31
2018-04-26T20:10:47.668Z,10.41
2018-04-26T20:13:15.348Z,10.24
2018-04-26T20:15:43.433Z,10.03
2018-04-26T20:18:11.079Z,10.03
2018-04-26T20:20:38.837Z,10.00
2018-04-26T20:23:06.329Z,10.00
2018-04-26T20:25:33.926Z,9.92
2018-04-26T20:28:01.410Z,9.84
2018-04-26T20:30:28.899Z,9.67
2018-04-26T20:32:56.451Z,9.61
2018-04-26T20:35:23.940Z,9.69
2018-04-26T20:37:51.418Z,9.91
2018-04-26T20:40:18.928Z,10.02
2018-04-26T20:42:46.500Z,10.04
2018-04-26T20:45:13.989Z,10.02
2018-04-26T20:47:41.508Z,9.81
2018-04-26T20:50:09.001Z,9.73
2018-04-26T20:52:36.481Z,9.58
2018-04-26T20:55:03.994Z,9.44
2018-04-26T20:57:31.481Z,9.57
2018-04-26T20:59:58.992Z,9.59
2018-04-26T21:02:26.684Z,9.62
2018-04-26T21:04:54.313Z,9.39
2018-04-26T21:07:21.921Z,9.41
2018-04-26T21:09:49.662Z,9.33
2018-04-26T21:12:17.375Z,9.16
2018-04-26T21:14:45.050Z,8.97
2018-04-26T21:17:12.813Z,9.01
2018-04-26T21:19:40.505Z,8.98
2018-04-26T21:22:08.169Z,9.06
2018-04-26T21:24:35.849Z,9.18
2018-04-26T21:27:03.513Z,9.03
2018-04-26T21:29:31.193Z,9.18
2018-04-26T21:31:59.285Z,8.80
2018-04-26T21:34:26.949Z,9.14
2018-04-26T21:36:54.622Z,8.97
2018-04-26T21:39:22.477Z,8.98
2018-04-26T21:41:50.123Z,9.14
2018-04-26T21:44:17.749Z,9.02
2018-04-26T21:46:45.536Z,8.96
2018-04-26T21:49:13.164Z,8.90
2018-04-26T21:51:46.610Z,8.69
2018-04-26T21:54:19.827Z,8.88
2018-04-26T21:56:53.038Z,8.59
2018-04-26T21:59:26.429Z,8.39
2018-04-26T22:01:59.701Z,8.42
2018-04-26T22:04:33.046Z,8.28
2018-04-26T22:07:00.705Z,7.86
2018-04-26T22:09:28.401Z,8.04
2018-04-26T22:11:56.179Z,8.19
2018-04-26T22:14:23.808Z,8.13
2018-04-26T22:16:51.425Z,8.09
2018-04-26T22:19:19.203Z,8.04
2018-04-26T22:21:46.889Z,7.98
2018-04-26T22:24:14.655Z,7.90
2018-04-26T22:26:42.237Z,7.89
2018-04-26T22:29:09.909Z,7.99
2018-04-26T22:31:37.569Z,7.87
2018-04-26T22:34:05.250Z,7.74
2018-04-26T22:36:32.985Z,7.88
2018-04-26T22:39:00.589Z,7.81
2018-04-26T22:41:28.193Z,7.94
2018-04-26T22:43:55.846Z,8.05
2018-04-26T22:46:23.508Z,7.96
2018-04-26T22:48:51.243Z,7.76
2018-04-26T22:51:18.896Z,7.78
2018-04-26T22:53:46.548Z,7.80
2018-04-26T22:56:14.213Z,7.75
2018-04-26T22:58:41.780Z,7.96
2018-04-26T23:01:09.257Z,7.85
2018-04-26T23:03:36.732Z,7.79
2018-04-26T23:06:04.245Z,7.68
2018-04-26T23:08:31.782Z,7.58
2018-04-26T23:10:59.257Z,7.49
2018-04-26T23:13:27.002Z,7.28
2018-04-26T23:15:54.483Z,7.30
2018-04-26T23:18:21.961Z,7.21
2018-04-26T23:20:49.500Z,7.02
2018-04-26T23:23:16.993Z,7.02
2018-04-26T23:25:44.469Z,7.05
2018-04-26T23:28:11.997Z,6.93
2018-04-26T23:30:39.477Z,6.93
2018-04-26T23:33:06.970Z,6.95
2018-04-26T23:35:34.511Z,6.85
2018-04-26T23:38:01.990Z,6.85
2018-04-26T23:40:29.469Z,6.95
2018-04-26T23:42:56.973Z,7.09
2018-04-26T23:45:24.465Z,6.98
2018-04-26T23:47:51.936Z,6.97
2018-04-26T23:50:19.577Z,6.93
2018-04-26T23:52:47.061Z,7.07
2018-04-26T23:55:14.540Z,7.08
2018-04-26T23:57:42.071Z,7.36
